createdAt,value
2023-01-09T00:02:23.629Z,2.50
2023-01-09T00:04:50.928Z,1.73
2023-01-09T00:07:18.139Z,2.17
2023-01-09T00:09:45.370Z,2.85
2023-01-09T00:12:12.600Z,2.28
2023-01-09T00:14:39.851Z,2.80
2023-01-09T00:17:07.140Z,2.10
2023-01-09T00:19:34.607Z,2.88
2023-01-09T00:22:01.930Z,2.42
2023-01-09T00:24:30.066Z,2.58
2023-01-09T00:26:57.303Z,2.80
2023-01-09T00:29:24.582Z,2.05
2023-01-09T00:31:51.885Z,1.95
2023-01-09T00:34:19.326Z,1.50
2023-01-09T00:36:46.619Z,1.27
2023-01-09T00:39:13.918Z,1.85
2023-01-09T00:41:44.412Z,1.10
2023-01-09T00:44:21.505Z,1.08
2023-01-09T00:49:18.817Z,1.77
2023-01-09T00:51:46.494Z,2.28
2023-01-09T00:54:17.680Z,1.90
2023-01-09T00:56:45.484Z,1.70
2023-01-09T00:59:12.731Z,1.92
2023-01-09T01:01:40.126Z,2.28
2023-01-09T01:04:26.303Z,1.30
2023-01-09T01:07:12.465Z,2.13
2023-01-09T01:09:39.799Z,2.13
2023-01-09T01:12:07.491Z,1.42
2023-01-09T01:14:36.936Z,1.40
2023-01-09T01:17:05.277Z,1.55
2023-01-09T01:19:34.142Z,1.20
2023-01-09T01:22:01.689Z,1.20
2023-01-09T01:24:28.992Z,3.08
2023-01-09T01:26:56.253Z,2.60
2023-01-09T01:29:23.476Z,1.50
2023-01-09T01:31:52.108Z,1.55
2023-01-09T01:34:19.530Z,1.55
2023-01-09T01:36:46.777Z,0.98
2023-01-09T01:39:14.017Z,1.30
2023-01-09T01:41:41.321Z,1.25
2023-01-09T01:44:47.258Z,1.60
2023-01-09T01:47:17.946Z,1.40
2023-01-09T01:49:45.686Z,1.45
2023-01-09T01:52:13.675Z,1.13
2023-01-09T01:54:41.641Z,0.52
2023-01-09T01:57:09.685Z,1.27
2023-01-09T01:59:38.781Z,1.58
2023-01-09T02:02:07.840Z,1.30
2023-01-09T02:04:39.266Z,2.38
2023-01-09T02:07:09.909Z,1.38
2023-01-09T02:09:40.343Z,1.25
2023-01-09T02:12:17.685Z,1.40
2023-01-09T02:14:47.389Z,1.67
2023-01-09T02:17:29.443Z,1.90
2023-01-09T02:19:59.632Z,2.83
2023-01-09T02:22:53.660Z,1.83
2023-01-09T02:25:29.572Z,2.10
2023-01-09T02:28:36.025Z,1.10
2023-01-09T02:31:08.213Z,1.73
2023-01-09T02:33:53.714Z,1.27
2023-01-09T02:36:30.766Z,1.27
2023-01-09T02:39:34.824Z,1.13
2023-01-09T02:42:24.138Z,1.92
2023-01-09T02:44:51.465Z,1.38
2023-01-09T02:47:18.664Z,1.60
2023-01-09T02:49:50.204Z,1.08
2023-01-09T02:52:45.206Z,1.40
2023-01-09T02:55:23.182Z,1.38
2023-01-09T02:58:08.379Z,1.30
2023-01-09T03:00:57.019Z,1.67
2023-01-09T03:03:36.667Z,0.98
2023-01-09T03:06:32.428Z,1.10
2023-01-09T03:09:06.713Z,0.80
2023-01-09T03:11:40.130Z,1.17
2023-01-09T03:14:16.057Z,1.30
2023-01-09T03:16:46.963Z,1.38
2023-01-09T03:19:18.977Z,1.02
2023-01-09T03:21:47.586Z,0.98
2023-01-09T03:24:15.034Z,1.48
2023-01-09T03:26:43.067Z,1.08
2023-01-09T03:29:10.642Z,0.70
2023-01-09T03:31:38.091Z,1.80
2023-01-09T03:34:05.425Z,1.42
2023-01-09T03:36:32.784Z,0.82
2023-01-09T03:39:00.164Z,1.35
2023-01-09T03:41:27.422Z,0.73
2023-01-09T03:43:54.645Z,1.75
2023-01-09T03:46:21.921Z,1.02
2023-01-09T03:48:49.324Z,1.35
2023-01-09T03:51:16.637Z,1.48
2023-01-09T03:53:43.923Z,1.70
2023-01-09T03:56:11.216Z,1.63
2023-01-09T03:58:38.426Z,2.35
2023-01-09T04:01:09.493Z,2.03
2023-01-09T04:03:36.969Z,2.08
2023-01-09T04:06:04.606Z,1.88
2023-01-09T04:08:32.177Z,2.03
2023-01-09T04:10:59.436Z,1.08
2023-01-09T04:13:26.668Z,2.55
2023-01-09T04:15:53.949Z,1.65
2023-01-09T04:18:21.321Z,2.47
2023-01-09T04:20:48.989Z,1.23
2023-01-09T04:23:16.541Z,2.05
2023-01-09T04:25:43.808Z,1.73
2023-01-09T04:28:11.051Z,1.15
2023-01-09T04:30:38.317Z,2.38
2023-01-09T04:33:05.552Z,1.80
2023-01-09T04:35:33.336Z,1.60
2023-01-09T04:38:00.948Z,1.98
2023-01-09T04:40:28.281Z,2.55
2023-01-09T04:42:55.627Z,2.80
2023-01-09T04:45:22.892Z,1.48
2023-01-09T04:47:50.159Z,2.33
2023-01-09T04:50:17.525Z,2.33
2023-01-09T04:52:44.939Z,1.92
2023-01-09T04:55:12.470Z,1.70
2023-01-09T04:57:39.704Z,2.63
2023-01-09T05:00:09.945Z,1.35
2023-01-09T05:02:37.824Z,1.05
2023-01-09T05:05:08.491Z,3.75
2023-01-09T05:07:37.151Z,1.52
2023-01-09T05:10:05.644Z,3.15
2023-01-09T05:12:34.524Z,1.67
2023-01-09T05:15:06.566Z,1.52
2023-01-09T05:17:34.023Z,2.05
2023-01-09T05:20:01.447Z,3.90
2023-01-09T05:22:28.934Z,1.48
2023-01-09T05:24:56.287Z,1.30
2023-01-09T05:27:23.675Z,1.27
2023-01-09T05:29:50.888Z,1.55
2023-01-09T05:32:18.131Z,2.80
2023-01-09T05:34:45.412Z,2.17
2023-01-09T05:37:12.754Z,2.53
2023-01-09T05:39:39.998Z,2.80
2023-01-09T05:42:07.287Z,1.85
2023-01-09T05:44:34.537Z,1.63
2023-01-09T05:47:02.880Z,1.85
2023-01-09T05:49:30.245Z,2.28
2023-01-09T05:51:57.500Z,2.58
2023-01-09T05:54:24.870Z,2.50
2023-01-09T05:56:52.193Z,3.20
2023-01-09T05:59:20.168Z,2.47
2023-01-09T06:01:47.570Z,1.55
2023-01-09T06:04:14.920Z,1.65
2023-01-09T06:06:42.195Z,1.90
2023-01-09T06:09:09.536Z,1.17
2023-01-09T06:11:38.374Z,2.65
2023-01-09T06:14:06.328Z,1.42
2023-01-09T06:16:33.700Z,2.00
2023-01-09T06:19:01.040Z,1.55
2023-01-09T06:21:29.495Z,1.02
2023-01-09T06:23:56.749Z,1.83
2023-01-09T06:26:25.081Z,1.67
2023-01-09T06:28:55.661Z,2.65
2023-01-09T06:31:24.179Z,2.08
2023-01-09T06:33:51.725Z,1.92
2023-01-09T06:36:20.411Z,1.45
2023-01-09T06:38:48.857Z,1.80
2023-01-09T06:41:16.152Z,2.72
2023-01-09T06:43:43.567Z,2.40
2023-01-09T06:46:10.972Z,1.70
2023-01-09T06:48:38.345Z,1.65
2023-01-09T06:51:05.876Z,2.70
2023-01-09T06:53:34.969Z,2.47
2023-01-09T06:56:02.933Z,0.88
2023-01-09T06:58:30.421Z,2.28
2023-01-09T07:00:59.115Z,1.75
2023-01-09T07:03:26.333Z,1.40
2023-01-09T07:05:53.664Z,1.02
2023-01-09T07:08:20.939Z,2.15
2023-01-09T07:10:48.237Z,2.00
2023-01-09T07:13:15.535Z,2.95
2023-01-09T07:15:43.044Z,2.78
2023-01-09T07:18:10.446Z,4.05
2023-01-09T07:20:43.370Z,2.13
2023-01-09T07:23:14.106Z,1.95
2023-01-09T07:25:44.382Z,1.02
2023-01-09T07:28:11.625Z,1.67
2023-01-09T07:30:38.970Z,2.63
2023-01-09T07:33:06.277Z,2.28
2023-01-09T07:35:34.025Z,3.10
2023-01-09T07:38:01.261Z,1.70
2023-01-09T07:40:28.530Z,1.75
2023-01-09T07:42:55.903Z,0.82
2023-01-09T07:45:23.212Z,3.78
2023-01-09T07:47:52.281Z,2.10
2023-01-09T07:50:20.180Z,2.17
2023-01-09T07:52:48.256Z,1.55
2023-01-09T07:55:17.456Z,2.00
2023-01-09T07:57:49.297Z,3.03
2023-01-09T08:00:17.661Z,1.15
2023-01-09T08:02:44.969Z,2.83
2023-01-09T08:05:14.964Z,3.27
2023-01-09T08:07:43.078Z,1.73
2023-01-09T08:10:11.119Z,2.20
2023-01-09T08:12:38.408Z,1.80
2023-01-09T08:15:06.224Z,2.88
2023-01-09T08:17:33.450Z,1.83
2023-01-09T08:20:00.779Z,1.60
2023-01-09T08:22:28.161Z,2.50
2023-01-09T08:24:55.441Z,2.75
2023-01-09T08:27:22.775Z,3.47
2023-01-09T08:29:50.137Z,2.90
2023-01-09T08:32:17.372Z,1.67
2023-01-09T08:34:44.833Z,2.00
2023-01-09T08:37:12.168Z,2.75
2023-01-09T08:39:39.465Z,2.63
2023-01-09T08:42:25.469Z,2.92
2023-01-09T08:45:11.454Z,2.33
2023-01-09T08:47:39.428Z,1.50
2023-01-09T08:50:07.119Z,2.67
2023-01-09T08:52:34.437Z,2.33
2023-01-09T08:55:01.771Z,0.95
2023-01-09T08:57:29.051Z,2.90
2023-01-09T08:59:56.289Z,3.40
2023-01-09T09:02:23.611Z,1.88
2023-01-09T09:04:52.992Z,2.67
2023-01-09T09:07:26.928Z,2.50
2023-01-09T09:09:54.484Z,1.95
2023-01-09T09:12:22.727Z,2.08
2023-01-09T09:15:22.168Z,1.80
2023-01-09T09:17:51.299Z,1.38
2023-01-09T09:20:18.527Z,2.05
2023-01-09T09:22:47.503Z,2.70
2023-01-09T09:25:15.747Z,1.48
2023-01-09T09:27:43.270Z,3.60
2023-01-09T09:30:12.229Z,1.52
2023-01-09T09:32:40.496Z,3.08
2023-01-09T09:35:08.215Z,2.13
2023-01-09T09:37:36.045Z,1.70
2023-01-09T09:40:17.397Z,1.05
2023-01-09T09:43:35.801Z,2.45
2023-01-09T09:46:09.067Z,1.98
2023-01-09T09:48:39.247Z,7.93
2023-01-09T09:51:27.506Z,3.22
2023-01-09T09:54:00.627Z,4.65
2023-01-09T09:56:31.523Z,3.03
2023-01-09T09:59:12.617Z,2.75
2023-01-09T10:02:09.115Z,2.60
2023-01-09T10:04:45.888Z,3.05
2023-01-09T10:07:23.101Z,4.38
2023-01-09T10:09:56.291Z,2.67
2023-01-09T10:12:35.695Z,3.00
2023-01-09T10:15:15.462Z,2.42
2023-01-09T10:17:55.601Z,1.40
2023-01-09T10:20:37.701Z,1.88
2023-01-09T10:23:26.840Z,2.20
2023-01-09T10:26:15.899Z,2.45
2023-01-09T10:29:14.255Z,2.03
2023-01-09T10:31:47.941Z,1.73
2023-01-09T10:34:37.977Z,2.40
2023-01-09T10:37:22.995Z,1.73
2023-01-09T10:40:00.107Z,1.35
2023-01-09T10:45:24.748Z,2.03
2023-01-09T10:48:00.557Z,2.25
2023-01-09T10:50:33.938Z,1.98
2023-01-09T10:53:14.226Z,2.05
2023-01-09T10:55:47.826Z,1.73
2023-01-09T10:58:17.443Z,1.98
2023-01-09T11:00:46.500Z,2.05
2023-01-09T11:03:22.184Z,1.58
2023-01-09T11:05:54.416Z,1.35
2023-01-09T11:08:42.020Z,1.70
2023-01-09T11:13:38.555Z,1.48
2023-01-09T11:16:21.512Z,1.42
2023-01-09T11:19:00.987Z,2.90
2023-01-09T11:21:33.443Z,3.22
2023-01-09T11:24:33.347Z,3.85
2023-01-09T11:27:12.877Z,2.40
2023-01-09T11:29:43.408Z,2.47
2023-01-09T11:32:23.443Z,2.80
2023-01-09T11:34:50.831Z,1.40
2023-01-09T11:37:27.789Z,1.70
2023-01-09T11:39:57.699Z,1.30
2023-01-09T11:42:45.598Z,1.25
2023-01-09T11:45:28.244Z,1.58
2023-01-09T11:47:55.656Z,1.10
2023-01-09T11:50:28.511Z,1.40
2023-01-09T11:53:16.075Z,1.00
2023-01-09T11:55:45.915Z,1.08
2023-01-09T11:58:19.831Z,1.25
2023-01-09T12:01:17.987Z,2.35
2023-01-09T12:04:09.626Z,0.95
2023-01-09T12:06:57.636Z,1.08
2023-01-09T12:09:49.922Z,0.90
2023-01-09T12:12:34.222Z,1.17
2023-01-09T12:15:20.087Z,1.73
2023-01-09T12:17:50.345Z,1.20
2023-01-09T12:20:31.752Z,1.58
2023-01-09T12:23:22.178Z,0.90
2023-01-09T12:26:12.538Z,1.48
2023-01-09T12:28:51.375Z,2.08
2023-01-09T12:31:21.582Z,1.15
2023-01-09T12:34:26.022Z,1.42
2023-01-09T12:36:53.345Z,1.55
2023-01-09T12:39:52.915Z,1.90
2023-01-09T12:43:07.717Z,1.00
2023-01-09T12:45:58.680Z,1.48
2023-01-09T12:48:29.097Z,1.10
2023-01-09T12:51:14.982Z,0.90
2023-01-09T12:54:11.977Z,1.40
2023-01-09T12:56:45.386Z,1.45
2023-01-09T12:59:51.157Z,1.58
2023-01-09T13:02:32.738Z,1.30
2023-01-09T13:05:18.515Z,1.48
2023-01-09T13:07:51.426Z,1.75
2023-01-09T13:10:38.500Z,1.65
2023-01-09T13:13:18.727Z,1.30
2023-01-09T13:15:49.751Z,1.27
2023-01-09T13:18:23.131Z,1.63
2023-01-09T13:20:53.540Z,1.63
2023-01-09T13:23:33.002Z,2.67
2023-01-09T13:26:06.354Z,1.55
2023-01-09T13:28:46.979Z,2.53
2023-01-09T13:31:51.229Z,2.22
2023-01-09T13:34:22.928Z,1.98
2023-01-09T13:36:55.739Z,1.55
2023-01-09T13:39:26.077Z,2.13
2023-01-09T13:42:24.132Z,2.78
2023-01-09T13:44:55.629Z,1.92
2023-01-09T13:47:28.603Z,1.65
2023-01-09T13:50:01.925Z,1.85
2023-01-09T13:52:41.845Z,1.35
2023-01-09T13:55:12.131Z,1.75
2023-01-09T13:57:45.193Z,2.15
2023-01-09T14:00:12.495Z,1.83
2023-01-09T14:02:49.844Z,1.65
2023-01-09T14:05:37.092Z,2.13
2023-01-09T14:08:13.908Z,1.52
2023-01-09T14:10:44.276Z,1.83
2023-01-09T14:13:16.223Z,1.75
2023-01-09T14:15:46.772Z,2.60
2023-01-09T14:18:25.313Z,1.70
2023-01-09T14:21:05.076Z,2.78
2023-01-09T14:23:52.026Z,1.92
2023-01-09T14:26:46.002Z,5.55
2023-01-09T14:29:31.480Z,2.38
2023-01-09T14:32:20.607Z,3.95
2023-01-09T14:35:05.968Z,3.72
2023-01-09T14:37:36.026Z,3.47
2023-01-09T14:40:07.196Z,2.40
2023-01-09T14:42:40.281Z,2.47
2023-01-09T14:45:14.805Z,2.58
2023-01-09T14:47:48.563Z,2.28
2023-01-09T14:50:38.242Z,2.40
2023-01-09T14:53:31.480Z,3.15
2023-01-09T14:56:06.585Z,2.65
2023-01-09T14:58:37.477Z,1.40
2023-01-09T15:01:10.955Z,2.72
2023-01-09T15:03:49.402Z,1.73
2023-01-09T15:06:22.933Z,2.22
2023-01-09T15:09:15.474Z,1.98
2023-01-09T15:11:43.154Z,2.13
2023-01-09T15:14:40.677Z,1.75
2023-01-09T15:17:24.789Z,1.83
2023-01-09T15:19:52.770Z,1.60
2023-01-09T15:22:31.528Z,1.83
2023-01-09T15:25:11.917Z,1.75
2023-01-09T15:27:56.252Z,1.70
2023-01-09T15:30:34.174Z,3.17
2023-01-09T15:33:13.679Z,1.90
2023-01-09T15:35:43.085Z,1.45
2023-01-09T15:38:16.559Z,1.90
2023-01-09T15:40:51.742Z,1.98
2023-01-09T15:43:19.134Z,1.73
2023-01-09T15:45:47.848Z,1.63
2023-01-09T15:48:30.823Z,2.25
2023-01-09T15:51:06.276Z,2.03
2023-01-09T15:53:34.507Z,2.03
2023-01-09T15:56:11.921Z,2.33
2023-01-09T15:58:47.405Z,2.15
2023-01-09T16:01:31.214Z,1.98
2023-01-09T16:04:09.031Z,3.28
2023-01-09T16:06:45.176Z,2.53
2023-01-09T16:09:25.775Z,1.10
2023-01-09T16:11:57.434Z,1.63
2023-01-09T16:14:34.496Z,2.42
2023-01-09T16:19:45.302Z,2.33
2023-01-09T16:22:25.842Z,2.30
2023-01-09T16:24:54.832Z,2.30
2023-01-09T16:27:33.316Z,1.95
2023-01-09T16:30:22.828Z,2.60
2023-01-09T16:32:51.486Z,3.00
2023-01-09T16:35:22.363Z,3.03
2023-01-09T16:37:49.740Z,2.65
2023-01-09T16:40:17.053Z,2.25
2023-01-09T16:43:07.025Z,4.45
2023-01-09T16:45:42.031Z,2.78
2023-01-09T16:48:12.420Z,3.50
2023-01-09T16:50:40.750Z,2.30
2023-01-09T16:53:24.049Z,3.28
2023-01-09T16:55:53.693Z,4.35
2023-01-09T16:58:35.208Z,6.50
2023-01-09T17:01:02.550Z,4.53
2023-01-09T17:03:29.870Z,3.45
2023-01-09T17:06:00.008Z,2.25
2023-01-09T17:08:35.939Z,3.63
2023-01-09T17:11:04.116Z,3.38
2023-01-09T17:13:31.399Z,2.08
2023-01-09T17:15:59.756Z,2.08
2023-01-09T17:18:28.707Z,2.65
2023-01-09T17:20:58.185Z,5.38
2023-01-09T17:23:25.862Z,8.95
2023-01-09T17:26:17.679Z,7.18
2023-01-09T17:28:50.749Z,3.67
2023-01-09T17:31:19.056Z,2.90
2023-01-09T17:33:46.467Z,3.72
2023-01-09T17:36:19.642Z,3.47
2023-01-09T17:38:47.318Z,2.65
2023-01-09T17:41:14.650Z,2.97
2023-01-09T17:43:43.736Z,2.25
2023-01-09T17:46:18.146Z,1.90
2023-01-09T17:48:46.277Z,2.22
2023-01-09T17:51:13.581Z,2.70
2023-01-09T17:53:41.433Z,2.63
2023-01-09T17:56:16.824Z,3.08
2023-01-09T17:58:45.719Z,2.80
2023-01-09T18:01:16.351Z,3.17
2023-01-09T18:03:46.860Z,1.98
2023-01-09T18:06:15.275Z,2.83
2023-01-09T18:08:42.740Z,2.90
2023-01-09T18:11:17.619Z,3.28
2023-01-09T18:13:45.972Z,2.10
2023-01-09T18:16:15.785Z,3.22
2023-01-09T18:18:44.958Z,1.95
2023-01-09T18:21:16.646Z,2.20
2023-01-09T18:23:43.971Z,2.30
2023-01-09T18:26:18.503Z,2.33
2023-01-09T18:28:46.341Z,2.85
2023-01-09T18:31:15.535Z,3.72
2023-01-09T18:33:45.034Z,4.43
2023-01-09T18:36:12.621Z,3.95
2023-01-09T18:38:39.991Z,4.13
2023-01-09T18:41:07.329Z,2.85
2023-01-09T18:43:34.558Z,3.30
2023-01-09T18:46:06.979Z,2.72
2023-01-09T18:48:35.616Z,3.88
2023-01-09T18:51:07.228Z,2.70
2023-01-09T18:53:35.140Z,3.80
2023-01-09T18:56:04.148Z,2.42
2023-01-09T18:58:33.852Z,2.47
2023-01-09T19:01:01.714Z,3.90
2023-01-09T19:03:29.155Z,3.72
2023-01-09T19:06:00.995Z,3.95
2023-01-09T19:08:32.862Z,5.80
2023-01-09T19:11:00.666Z,3.28
2023-01-09T19:13:33.480Z,2.72
2023-01-09T19:16:01.679Z,5.35
2023-01-09T19:18:34.770Z,2.78
2023-01-09T19:21:02.252Z,5.13
2023-01-09T19:23:29.758Z,2.15
2023-01-09T19:25:57.787Z,4.07
2023-01-09T19:28:25.106Z,1.85
2023-01-09T19:30:56.968Z,2.72
2023-01-09T19:33:25.293Z,3.20
2023-01-09T19:35:53.265Z,3.13
2023-01-09T19:38:25.029Z,4.72
2023-01-09T19:40:52.459Z,2.67
2023-01-09T19:43:28.758Z,4.10
2023-01-09T19:45:56.547Z,4.50
2023-01-09T19:48:26.990Z,1.77
2023-01-09T19:51:03.081Z,4.15
2023-01-09T19:53:30.958Z,3.63
2023-01-09T19:56:17.018Z,6.00
2023-01-09T19:58:49.334Z,3.70
2023-01-09T20:01:20.246Z,3.95
2023-01-09T20:03:48.624Z,3.35
2023-01-09T20:06:19.035Z,1.63
2023-01-09T20:08:51.642Z,3.42
2023-01-09T20:11:21.328Z,3.25
2023-01-09T20:13:48.770Z,3.55
2023-01-09T20:16:19.923Z,2.65
2023-01-09T20:18:48.113Z,2.83
2023-01-09T20:23:51.015Z,3.38
2023-01-09T20:26:19.026Z,1.45
2023-01-09T20:28:47.406Z,4.03
2023-01-09T20:31:16.791Z,3.30
2023-01-09T20:33:44.769Z,4.32
2023-01-09T20:36:12.059Z,3.90
2023-01-09T20:38:40.693Z,2.58
2023-01-09T20:41:24.134Z,2.40
2023-01-09T20:44:00.630Z,2.15
2023-01-09T20:46:30.472Z,3.03
2023-01-09T20:48:59.394Z,4.90
2023-01-09T20:51:26.657Z,2.03
2023-01-09T20:53:58.374Z,3.55
2023-01-09T20:56:27.764Z,3.25
2023-01-09T20:58:56.035Z,4.00
2023-01-09T21:01:24.665Z,4.18
2023-01-09T21:03:53.029Z,3.10
2023-01-09T21:06:23.315Z,4.90
2023-01-09T21:08:52.271Z,3.25
2023-01-09T21:11:21.408Z,2.58
2023-01-09T21:13:49.922Z,2.33
2023-01-09T21:16:21.237Z,2.97
2023-01-09T21:18:49.011Z,3.85
2023-01-09T21:21:22.141Z,4.25
2023-01-09T21:23:52.258Z,2.00
2023-01-09T21:26:22.547Z,3.85
2023-01-09T21:28:51.085Z,4.38
2023-01-09T21:31:20.758Z,4.10
2023-01-09T21:33:49.270Z,3.70
2023-01-09T21:36:17.274Z,3.97
2023-01-09T21:38:45.391Z,3.35
2023-01-09T21:41:39.170Z,3.30
2023-01-09T21:44:25.484Z,4.28
2023-01-09T21:46:52.957Z,3.58
2023-01-09T21:49:23.101Z,4.65
2023-01-09T21:51:50.533Z,5.15
2023-01-09T21:54:18.287Z,3.38
2023-01-09T21:56:45.833Z,4.22
2023-01-09T21:59:13.403Z,2.55
2023-01-09T22:01:40.931Z,4.43
2023-01-09T22:04:08.295Z,2.25
2023-01-09T22:06:36.205Z,5.63
2023-01-09T22:09:03.586Z,6.00
2023-01-09T22:11:30.900Z,6.05
2023-01-09T22:14:00.228Z,5.45
2023-01-09T22:16:28.001Z,5.80
2023-01-09T22:18:56.211Z,4.15
2023-01-09T22:21:25.165Z,2.17
2023-01-09T22:23:52.824Z,5.38
2023-01-09T22:26:20.824Z,5.35
2023-01-09T22:28:49.311Z,4.00
2023-01-09T22:31:18.990Z,4.18
2023-01-09T22:33:54.028Z,5.75
2023-01-09T22:36:21.518Z,3.40
2023-01-09T22:38:48.770Z,4.90
2023-01-09T22:41:16.055Z,4.05
2023-01-09T22:43:43.529Z,3.40
2023-01-09T22:46:11.798Z,5.03
2023-01-09T22:48:40.003Z,3.80
2023-01-09T22:51:19.199Z,4.22
2023-01-09T22:53:47.304Z,5.65
2023-01-09T22:56:19.368Z,3.83
2023-01-09T22:58:51.737Z,4.47
2023-01-09T23:01:20.309Z,2.28
2023-01-09T23:03:48.030Z,4.75
2023-01-09T23:06:18.070Z,5.90
2023-01-09T23:08:46.339Z,5.05
2023-01-09T23:11:44.641Z,4.22
2023-01-09T23:14:12.247Z,5.03
2023-01-09T23:16:39.954Z,3.13
2023-01-09T23:19:08.855Z,7.60
2023-01-09T23:21:36.975Z,5.00
2023-01-09T23:24:06.828Z,6.45
2023-01-09T23:26:34.798Z,4.35
2023-01-09T23:29:02.426Z,4.57
2023-01-09T23:31:29.780Z,5.00
2023-01-09T23:33:57.099Z,5.68
2023-01-09T23:36:24.377Z,6.28
2023-01-09T23:38:51.640Z,6.10
2023-01-09T23:41:19.691Z,6.07
2023-01-09T23:43:46.949Z,7.50
2023-01-09T23:46:14.883Z,2.85
2023-01-09T23:48:42.169Z,4.72
2023-01-09T23:51:09.489Z,6.65
2023-01-09T23:53:36.704Z,4.68
2023-01-09T23:56:04.139Z,6.03
2023-01-09T23:58:31.424Z,2.67
